createdAt,value
2023-05-07T00:02:21.089Z,21.40
2023-05-07T00:04:49.739Z,21.40
2023-05-07T00:07:16.861Z,21.40
2023-05-07T00:09:46.117Z,21.40
2023-05-07T00:12:14.916Z,21.40
2023-05-07T00:14:45.770Z,21.40
2023-05-07T00:17:13.447Z,21.40
2023-05-07T00:19:42.749Z,21.40
2023-05-07T00:22:12.184Z,21.40
2023-05-07T00:24:40.655Z,21.40
2023-05-07T00:27:08.116Z,21.40
2023-05-07T00:29:36.633Z,21.40
2023-05-07T00:32:08.416Z,21.40
2023-05-07T00:34:36.414Z,21.30
2023-05-07T00:37:11.594Z,21.40
2023-05-07T00:39:39.182Z,21.40
2023-05-07T00:42:13.687Z,21.40
2023-05-07T00:44:43.009Z,21.30
2023-05-07T00:47:12.048Z,21.30
2023-05-07T00:49:41.540Z,21.30
2023-05-07T00:52:10.511Z,21.30
2023-05-07T00:54:38.077Z,21.30
2023-05-07T00:57:05.561Z,21.30
2023-05-07T00:59:33.151Z,21.30
2023-05-07T01:02:01.027Z,21.30
2023-05-07T01:04:28.575Z,21.30
2023-05-07T01:06:58.950Z,21.30
2023-05-07T01:09:27.348Z,21.30
2023-05-07T01:11:59.171Z,21.30
2023-05-07T01:14:34.988Z,21.30
2023-05-07T01:17:02.169Z,21.30
2023-05-07T01:19:30.142Z,21.30
2023-05-07T01:21:58.840Z,21.30
2023-05-07T01:24:27.664Z,21.30
2023-05-07T01:27:09.215Z,21.30
2023-05-07T01:29:38.251Z,21.30
2023-05-07T01:32:05.265Z,21.30
2023-05-07T01:34:33.357Z,21.30
2023-05-07T01:37:03.301Z,21.20
2023-05-07T01:39:30.531Z,21.20
2023-05-07T01:41:57.957Z,21.20
2023-05-07T01:44:25.580Z,21.20
2023-05-07T01:46:52.963Z,21.20
2023-05-07T01:49:20.224Z,21.20
2023-05-07T01:51:47.577Z,21.20
2023-05-07T01:54:14.837Z,21.20
2023-05-07T01:56:42.224Z,21.20
2023-05-07T01:59:09.305Z,21.20
2023-05-07T02:01:36.488Z,21.20
2023-05-07T02:04:04.141Z,21.20
2023-05-07T02:06:32.382Z,21.20
2023-05-07T02:08:59.080Z,21.30
2023-05-07T02:11:29.586Z,21.30
2023-05-07T02:13:59.744Z,21.40
2023-05-07T02:16:26.745Z,21.50
2023-05-07T02:18:53.658Z,21.60
2023-05-07T02:21:20.755Z,21.70
2023-05-07T02:23:47.620Z,21.80
2023-05-07T02:26:14.464Z,21.80
2023-05-07T02:28:41.216Z,21.80
2023-05-07T02:31:08.139Z,21.80
2023-05-07T02:33:36.327Z,21.70
2023-05-07T02:36:09.994Z,21.70
2023-05-07T02:38:37.238Z,21.60
2023-05-07T02:41:04.381Z,21.60
2023-05-07T02:43:31.291Z,21.60
2023-05-07T02:46:16.918Z,21.60
2023-05-07T02:48:44.134Z,21.50
2023-05-07T02:51:10.982Z,21.50
2023-05-07T02:53:38.069Z,21.50
2023-05-07T02:56:04.945Z,21.50
2023-05-07T02:58:31.886Z,21.50
2023-05-07T03:00:59.051Z,21.40
2023-05-07T03:03:25.945Z,21.40
2023-05-07T03:05:52.761Z,21.40
2023-05-07T03:08:19.751Z,21.40
2023-05-07T03:10:46.559Z,21.40
2023-05-07T03:13:13.359Z,21.40
2023-05-07T03:15:40.229Z,21.40
2023-05-07T03:18:07.069Z,21.30
2023-05-07T03:20:34.000Z,21.30
2023-05-07T03:23:01.567Z,21.30
2023-05-07T03:25:28.427Z,21.30
2023-05-07T03:27:55.312Z,21.30
2023-05-07T03:30:22.068Z,21.30
2023-05-07T03:32:48.857Z,21.20
2023-05-07T03:35:15.605Z,21.30
2023-05-07T03:37:43.130Z,21.30
2023-05-07T03:40:11.805Z,21.30
2023-05-07T03:42:38.999Z,21.30
2023-05-07T03:45:06.284Z,21.30
2023-05-07T03:47:33.066Z,21.20
2023-05-07T03:50:00.491Z,21.20
2023-05-07T03:52:28.226Z,21.20
2023-05-07T03:54:54.944Z,21.20
2023-05-07T03:57:21.660Z,21.20
2023-05-07T03:59:48.367Z,21.10
2023-05-07T04:02:15.286Z,21.20
2023-05-07T04:04:42.067Z,21.20
2023-05-07T04:07:08.731Z,21.20
2023-05-07T04:09:35.469Z,21.20
2023-05-07T04:12:02.413Z,21.20
2023-05-07T04:14:29.359Z,21.20
2023-05-07T04:16:56.164Z,21.20
2023-05-07T04:19:22.904Z,21.20
2023-05-07T04:21:49.777Z,21.20
2023-05-07T04:24:17.087Z,21.20
2023-05-07T04:26:43.772Z,21.20
2023-05-07T04:29:10.654Z,21.20
2023-05-07T04:31:37.436Z,21.20
2023-05-07T04:34:04.376Z,21.20
2023-05-07T04:36:31.490Z,21.20
2023-05-07T04:39:01.654Z,21.10
2023-05-07T04:41:28.634Z,21.10
2023-05-07T04:43:55.608Z,21.10
2023-05-07T04:46:22.441Z,21.10
2023-05-07T04:48:49.485Z,21.10
2023-05-07T04:51:16.614Z,21.10
2023-05-07T04:53:44.638Z,21.10
2023-05-07T04:56:11.233Z,21.10
2023-05-07T04:58:37.931Z,21.20
2023-05-07T05:01:04.662Z,21.20
2023-05-07T05:03:31.487Z,21.10
2023-05-07T05:06:00.426Z,21.10
2023-05-07T05:08:27.587Z,21.10
2023-05-07T05:10:54.224Z,21.10
2023-05-07T05:13:21.383Z,21.10
2023-05-07T05:15:48.156Z,21.10
2023-05-07T05:18:14.795Z,21.10
2023-05-07T05:20:41.422Z,21.10
2023-05-07T05:23:08.677Z,21.10
2023-05-07T05:25:35.256Z,21.10
2023-05-07T05:28:02.344Z,21.20
2023-05-07T05:30:28.964Z,21.10
2023-05-07T05:32:55.598Z,21.20
2023-05-07T05:35:22.196Z,21.10
2023-05-07T05:37:49.240Z,21.10
2023-05-07T05:40:15.899Z,21.10
2023-05-07T05:42:42.531Z,21.10
2023-05-07T05:45:09.502Z,21.10
2023-05-07T05:47:36.169Z,21.10
2023-05-07T05:50:02.780Z,21.10
2023-05-07T05:52:29.609Z,21.10
2023-05-07T05:54:56.171Z,21.10
2023-05-07T05:57:22.793Z,21.10
2023-05-07T05:59:49.393Z,21.10
2023-05-07T06:02:16.183Z,21.20
2023-05-07T06:04:43.666Z,21.40
2023-05-07T06:07:10.561Z,21.50
2023-05-07T06:09:37.184Z,21.50
2023-05-07T06:12:03.833Z,21.70
2023-05-07T06:14:30.596Z,21.60
2023-05-07T06:16:57.863Z,21.60
2023-05-07T06:19:25.075Z,21.60
2023-05-07T06:21:51.863Z,21.50
2023-05-07T06:24:19.434Z,21.50
2023-05-07T06:26:46.286Z,21.40
2023-05-07T06:29:12.851Z,21.40
2023-05-07T06:31:39.532Z,21.40
2023-05-07T06:34:06.169Z,21.30
2023-05-07T06:36:32.786Z,21.30
2023-05-07T06:38:59.437Z,21.30
2023-05-07T06:41:26.869Z,21.30
2023-05-07T06:43:53.556Z,21.30
2023-05-07T06:46:20.218Z,21.50
2023-05-07T06:48:46.879Z,21.50
2023-05-07T06:51:13.468Z,21.40
2023-05-07T06:53:40.152Z,21.30
2023-05-07T06:56:06.795Z,21.90
2023-05-07T06:58:33.501Z,21.20
2023-05-07T07:01:00.231Z,21.20
2023-05-07T07:03:26.874Z,21.20
2023-05-07T07:05:54.183Z,21.30
2023-05-07T07:08:22.413Z,21.20
2023-05-07T07:10:49.097Z,21.30
2023-05-07T07:13:15.910Z,21.10
2023-05-07T07:15:42.625Z,21.10
2023-05-07T07:18:09.380Z,21.20
2023-05-07T07:20:36.049Z,21.30
2023-05-07T07:23:02.631Z,21.10
2023-05-07T07:25:29.285Z,21.10
2023-05-07T07:27:56.066Z,21.10
2023-05-07T07:30:22.692Z,21.20
2023-05-07T07:32:49.400Z,21.30
2023-05-07T07:35:16.057Z,21.10
2023-05-07T07:37:42.673Z,21.10
2023-05-07T07:40:10.377Z,21.20
2023-05-07T07:42:37.205Z,21.10
2023-05-07T07:45:04.176Z,21.10
2023-05-07T07:47:31.063Z,21.10
2023-05-07T07:49:58.275Z,21.90
2023-05-07T07:52:24.888Z,21.10
2023-05-07T07:54:51.466Z,21.10
2023-05-07T07:57:18.117Z,21.10
2023-05-07T07:59:44.790Z,21.10
2023-05-07T08:02:11.497Z,21.10
2023-05-07T08:04:38.710Z,21.10
2023-05-07T08:07:05.628Z,21.10
2023-05-07T08:09:32.253Z,21.10
2023-05-07T08:11:59.063Z,21.10
2023-05-07T08:14:25.688Z,21.10
2023-05-07T08:16:52.481Z,21.10
2023-05-07T08:19:19.119Z,20.90
2023-05-07T08:21:45.970Z,21.10
2023-05-07T08:24:12.840Z,21.40
2023-05-07T08:26:40.349Z,21.10
2023-05-07T08:29:06.978Z,21.10
2023-05-07T08:31:33.592Z,21.10
2023-05-07T08:34:00.389Z,21.10
2023-05-07T08:36:27.064Z,21.10
2023-05-07T08:38:53.835Z,21.00
2023-05-07T08:41:21.327Z,21.00
2023-05-07T08:43:48.360Z,21.10
2023-05-07T08:46:16.925Z,21.10
2023-05-07T08:48:43.541Z,21.10
2023-05-07T08:51:13.287Z,21.00
2023-05-07T08:53:41.492Z,21.00
2023-05-07T08:56:09.096Z,21.00
2023-05-07T08:58:35.755Z,21.10
2023-05-07T09:01:03.727Z,21.20
2023-05-07T09:03:31.730Z,21.00
2023-05-07T09:06:07.476Z,21.10
2023-05-07T09:08:34.242Z,21.00
2023-05-07T09:11:00.917Z,21.00
2023-05-07T09:13:30.794Z,21.00
2023-05-07T09:15:57.520Z,21.00
2023-05-07T09:18:27.211Z,21.00
2023-05-07T09:20:53.793Z,21.00
2023-05-07T09:23:20.596Z,21.20
2023-05-07T09:25:47.233Z,21.00
2023-05-07T09:28:14.013Z,21.40
2023-05-07T09:30:40.640Z,21.00
2023-05-07T09:33:07.241Z,21.00
2023-05-07T09:35:33.878Z,21.20
2023-05-07T09:38:03.679Z,21.00
2023-05-07T09:40:31.505Z,21.20
2023-05-07T09:42:58.104Z,21.10
2023-05-07T09:45:30.932Z,21.20
2023-05-07T09:47:57.854Z,21.30
2023-05-07T09:50:31.335Z,21.30
2023-05-07T09:52:58.018Z,21.50
2023-05-07T09:55:24.611Z,21.60
2023-05-07T09:57:51.337Z,21.70
2023-05-07T10:00:18.309Z,21.60
2023-05-07T10:02:49.146Z,21.60
2023-05-07T10:05:15.934Z,21.60
2023-05-07T10:07:42.511Z,21.50
2023-05-07T10:10:11.356Z,21.50
2023-05-07T10:12:41.499Z,21.50
2023-05-07T10:15:08.847Z,21.40
2023-05-07T10:17:39.048Z,21.40
2023-05-07T10:20:08.464Z,21.40
2023-05-07T10:22:39.797Z,21.40
2023-05-07T10:25:09.113Z,21.40
2023-05-07T10:27:36.002Z,21.30
2023-05-07T10:30:13.508Z,21.30
2023-05-07T10:32:41.473Z,21.30
2023-05-07T10:35:10.921Z,21.30
2023-05-07T10:37:37.630Z,21.30
2023-05-07T10:40:04.488Z,21.30
2023-05-07T10:42:31.305Z,21.30
2023-05-07T10:44:57.904Z,21.30
2023-05-07T10:47:24.755Z,21.30
2023-05-07T10:49:51.511Z,21.30
2023-05-07T10:52:18.713Z,21.50
2023-05-07T10:54:48.364Z,21.30
2023-05-07T10:57:33.577Z,21.30
2023-05-07T11:00:00.360Z,21.30
2023-05-07T11:02:45.978Z,21.50
2023-05-07T11:05:24.788Z,21.30
2023-05-07T11:08:01.231Z,21.30
2023-05-07T11:10:46.621Z,21.30
2023-05-07T11:13:13.308Z,21.30
2023-05-07T11:15:44.221Z,21.30
2023-05-07T11:18:11.468Z,21.40
2023-05-07T11:20:45.315Z,21.40
2023-05-07T11:23:31.543Z,21.30
2023-05-07T11:26:01.423Z,21.40
2023-05-07T11:28:30.944Z,21.40
2023-05-07T11:30:57.848Z,21.40
2023-05-07T11:33:26.402Z,21.50
2023-05-07T11:35:56.081Z,21.60
2023-05-07T11:38:22.704Z,21.80
2023-05-07T11:41:01.511Z,21.80
2023-05-07T11:43:28.218Z,21.80
2023-05-07T11:45:54.843Z,21.80
2023-05-07T11:48:22.097Z,21.70
2023-05-07T11:50:55.506Z,21.70
2023-05-07T11:53:23.292Z,21.70
2023-05-07T11:55:52.857Z,21.70
2023-05-07T11:58:23.083Z,21.70
2023-05-07T12:00:55.809Z,21.70
2023-05-07T12:03:22.498Z,21.60
2023-05-07T12:05:49.310Z,21.60
2023-05-07T12:08:19.157Z,21.60
2023-05-07T12:10:46.135Z,21.60
2023-05-07T12:13:17.002Z,21.60
2023-05-07T12:15:43.945Z,21.60
2023-05-07T12:18:11.217Z,21.60
2023-05-07T12:20:37.855Z,21.60
2023-05-07T12:23:04.411Z,21.50
2023-05-07T12:25:32.010Z,21.60
2023-05-07T12:27:59.836Z,21.60
2023-05-07T12:30:26.392Z,21.60
2023-05-07T12:32:56.099Z,21.60
2023-05-07T12:35:29.464Z,21.70
2023-05-07T12:38:00.863Z,21.60
2023-05-07T12:40:37.421Z,21.60
2023-05-07T12:43:04.208Z,21.60
2023-05-07T12:45:30.831Z,21.60
2023-05-07T12:47:57.585Z,21.60
2023-05-07T12:50:31.283Z,21.60
2023-05-07T12:52:57.859Z,21.70
2023-05-07T12:55:24.598Z,21.90
2023-05-07T12:57:54.443Z,22.00
2023-05-07T13:00:36.991Z,21.90
2023-05-07T13:03:03.668Z,22.00
2023-05-07T13:05:30.332Z,22.20
2023-05-07T13:07:57.087Z,22.20
2023-05-07T13:10:24.232Z,22.10
2023-05-07T13:12:51.089Z,22.10
2023-05-07T13:15:18.264Z,22.00
2023-05-07T13:17:44.988Z,22.00
2023-05-07T13:20:12.446Z,21.90
2023-05-07T13:22:39.269Z,21.90
2023-05-07T13:25:06.218Z,21.90
2023-05-07T13:27:32.849Z,21.90
2023-05-07T13:29:59.440Z,21.90
2023-05-07T13:32:26.058Z,21.90
2023-05-07T13:34:52.785Z,21.90
2023-05-07T13:37:19.414Z,22.10
2023-05-07T13:39:47.005Z,21.80
2023-05-07T13:42:13.601Z,21.90
2023-05-07T13:44:40.235Z,22.20
2023-05-07T13:47:06.908Z,21.80
2023-05-07T13:49:33.538Z,21.80
2023-05-07T13:52:00.151Z,21.80
2023-05-07T13:54:26.713Z,21.80
2023-05-07T13:56:53.333Z,21.80
2023-05-07T13:59:21.474Z,21.80
2023-05-07T14:01:48.288Z,21.80
2023-05-07T14:04:14.936Z,21.80
2023-05-07T14:06:41.589Z,21.70
2023-05-07T14:09:08.295Z,21.80
2023-05-07T14:11:36.252Z,21.80
2023-05-07T14:14:03.124Z,21.70
2023-05-07T14:16:29.769Z,21.70
2023-05-07T14:18:58.019Z,21.70
2023-05-07T14:21:25.103Z,21.70
2023-05-07T14:23:52.080Z,21.80
2023-05-07T14:26:18.741Z,21.70
2023-05-07T14:28:47.302Z,21.80
2023-05-07T14:31:15.320Z,21.90
2023-05-07T14:33:42.327Z,22.00
2023-05-07T14:36:09.077Z,22.20
2023-05-07T14:38:35.713Z,22.30
2023-05-07T14:41:02.447Z,22.30
2023-05-07T14:43:29.044Z,22.20
2023-05-07T14:45:55.790Z,22.20
2023-05-07T14:48:22.420Z,22.20
2023-05-07T14:50:49.305Z,22.20
2023-05-07T14:53:16.379Z,22.20
2023-05-07T14:55:43.029Z,22.10
2023-05-07T14:58:09.676Z,22.10
2023-05-07T15:00:36.255Z,22.10
2023-05-07T15:03:07.117Z,22.10
2023-05-07T15:05:34.142Z,22.00
2023-05-07T15:08:01.231Z,22.00
2023-05-07T15:10:27.822Z,22.00
2023-05-07T15:12:54.714Z,22.00
2023-05-07T15:15:21.375Z,22.00
2023-05-07T15:17:48.142Z,21.90
2023-05-07T15:20:14.751Z,21.90
2023-05-07T15:22:42.803Z,21.90
2023-05-07T15:25:10.507Z,21.90
2023-05-07T15:27:37.581Z,21.90
2023-05-07T15:30:04.646Z,21.80
2023-05-07T15:32:31.251Z,21.90
2023-05-07T15:34:58.046Z,21.80
2023-05-07T15:37:24.625Z,21.80
2023-05-07T15:39:51.752Z,21.80
2023-05-07T15:42:18.342Z,21.80
2023-05-07T15:44:44.928Z,21.90
2023-05-07T15:47:11.513Z,21.90
2023-05-07T15:49:38.107Z,21.80
2023-05-07T15:52:04.778Z,21.80
2023-05-07T15:54:31.449Z,21.90
2023-05-07T15:56:58.014Z,22.00
2023-05-07T15:59:24.642Z,22.10
2023-05-07T16:01:51.457Z,22.20
2023-05-07T16:04:18.147Z,22.30
2023-05-07T16:06:47.395Z,22.40
2023-05-07T16:09:14.315Z,22.30
2023-05-07T16:11:40.912Z,22.20
2023-05-07T16:14:07.484Z,22.20
2023-05-07T16:16:34.694Z,22.20
2023-05-07T16:19:01.467Z,22.10
2023-05-07T16:21:28.410Z,22.10
2023-05-07T16:23:55.026Z,22.10
2023-05-07T16:26:21.754Z,22.00
2023-05-07T16:28:48.453Z,22.00
2023-05-07T16:31:15.067Z,22.00
2023-05-07T16:33:41.645Z,22.00
2023-05-07T16:36:08.278Z,22.00
2023-05-07T16:38:34.912Z,22.00
2023-05-07T16:41:01.705Z,21.90
2023-05-07T16:43:28.402Z,21.90
2023-05-07T16:45:55.070Z,21.90
2023-05-07T16:48:21.945Z,21.90
2023-05-07T16:50:48.549Z,21.90
2023-05-07T16:53:15.155Z,21.90
2023-05-07T16:55:42.034Z,21.90
2023-05-07T16:58:09.205Z,21.90
2023-05-07T17:00:48.998Z,21.90
2023-05-07T17:03:17.070Z,21.90
2023-05-07T17:05:43.817Z,21.90
2023-05-07T17:08:10.435Z,21.90
2023-05-07T17:10:37.008Z,21.90
2023-05-07T17:13:03.659Z,21.90
2023-05-07T17:15:30.368Z,21.90
2023-05-07T17:17:56.972Z,21.90
2023-05-07T17:20:23.645Z,21.80
2023-05-07T17:22:50.204Z,21.80
2023-05-07T17:25:16.941Z,21.80
2023-05-07T17:27:43.523Z,21.90
2023-05-07T17:30:11.446Z,22.00
2023-05-07T17:32:38.207Z,22.00
2023-05-07T17:35:04.996Z,22.10
2023-05-07T17:37:31.673Z,22.20
2023-05-07T17:39:58.310Z,22.30
2023-05-07T17:42:24.929Z,22.60
2023-05-07T17:44:51.545Z,22.30
2023-05-07T17:47:18.125Z,22.50
2023-05-07T17:49:44.819Z,22.20
2023-05-07T17:52:11.470Z,22.20
2023-05-07T17:54:38.048Z,22.10
2023-05-07T17:57:04.659Z,22.10
2023-05-07T17:59:31.324Z,22.10
2023-05-07T18:01:58.012Z,22.10
2023-05-07T18:04:26.513Z,22.10
2023-05-07T18:06:53.180Z,22.00
2023-05-07T18:09:19.752Z,22.10
2023-05-07T18:11:46.349Z,22.00
2023-05-07T18:14:12.927Z,22.00
2023-05-07T18:16:39.561Z,22.00
2023-05-07T18:19:06.310Z,22.00
2023-05-07T18:21:33.117Z,21.90
2023-05-07T18:23:59.686Z,21.90
2023-05-07T18:26:26.551Z,21.90
2023-05-07T18:28:53.122Z,21.90
2023-05-07T18:31:20.714Z,21.90
2023-05-07T18:33:47.398Z,21.90
2023-05-07T18:36:13.996Z,21.90
2023-05-07T18:38:42.646Z,21.70
2023-05-07T18:41:09.311Z,21.90
2023-05-07T18:43:36.152Z,21.90
2023-05-07T18:46:02.986Z,21.90
2023-05-07T18:48:30.865Z,21.90
2023-05-07T18:50:57.483Z,21.90
2023-05-07T18:53:24.112Z,21.80
2023-05-07T18:55:51.150Z,21.90
2023-05-07T18:58:19.816Z,21.90
2023-05-07T19:00:49.972Z,21.80
2023-05-07T19:03:17.028Z,21.80
2023-05-07T19:05:43.903Z,21.80
2023-05-07T19:08:10.616Z,21.90
2023-05-07T19:10:37.288Z,21.80
2023-05-07T19:13:03.904Z,21.70
2023-05-07T19:15:30.655Z,21.80
2023-05-07T19:18:00.974Z,21.80
2023-05-07T19:20:28.053Z,21.80
2023-05-07T19:22:54.661Z,21.90
2023-05-07T19:25:21.260Z,21.70
2023-05-07T19:27:48.214Z,21.80
2023-05-07T19:30:14.826Z,21.80
2023-05-07T19:32:41.545Z,21.80
2023-05-07T19:35:08.268Z,21.90
2023-05-07T19:37:34.911Z,22.00
2023-05-07T19:40:05.120Z,22.10
2023-05-07T19:42:32.033Z,22.20
2023-05-07T19:44:58.637Z,22.30
2023-05-07T19:47:25.637Z,22.30
2023-05-07T19:49:52.306Z,22.30
2023-05-07T19:52:18.908Z,22.10
2023-05-07T19:54:45.509Z,22.30
2023-05-07T19:57:12.188Z,22.20
2023-05-07T19:59:38.780Z,22.20
2023-05-07T20:02:05.663Z,22.10
2023-05-07T20:04:37.279Z,22.60
2023-05-07T20:07:04.290Z,22.10
2023-05-07T20:09:31.943Z,22.10
2023-05-07T20:11:58.558Z,22.00
2023-05-07T20:14:25.908Z,22.00
2023-05-07T20:16:52.473Z,22.00
2023-05-07T20:19:19.606Z,22.00
2023-05-07T20:21:46.170Z,22.00
2023-05-07T20:24:12.749Z,22.10
2023-05-07T20:26:39.361Z,21.90
2023-05-07T20:29:06.035Z,21.90
2023-05-07T20:31:34.982Z,22.10
2023-05-07T20:34:02.040Z,21.90
2023-05-07T20:36:28.875Z,21.90
2023-05-07T20:38:56.086Z,21.90
2023-05-07T20:41:25.000Z,21.90
2023-05-07T20:43:51.760Z,21.80
2023-05-07T20:46:20.824Z,21.80
2023-05-07T20:48:47.525Z,21.90
2023-05-07T20:51:15.855Z,21.90
2023-05-07T20:53:44.906Z,21.90
2023-05-07T20:56:13.449Z,21.80
2023-05-07T20:58:39.999Z,21.80
2023-05-07T21:01:06.845Z,21.80
2023-05-07T21:03:33.500Z,21.80
2023-05-07T21:06:00.535Z,21.80
2023-05-07T21:08:27.555Z,21.80
2023-05-07T21:10:55.033Z,21.90
2023-05-07T21:13:21.737Z,22.00
2023-05-07T21:15:48.482Z,21.80
2023-05-07T21:18:15.657Z,21.80
2023-05-07T21:20:42.232Z,21.80
2023-05-07T21:23:08.813Z,21.80
2023-05-07T21:25:38.995Z,21.80
2023-05-07T21:28:06.809Z,21.80
2023-05-07T21:30:33.393Z,21.80
2023-05-07T21:33:00.098Z,21.80
2023-05-07T21:35:26.911Z,22.00
2023-05-07T21:37:53.520Z,21.80
2023-05-07T21:40:20.241Z,21.80
2023-05-07T21:42:46.823Z,21.80
2023-05-07T21:45:13.458Z,21.80
2023-05-07T21:47:40.104Z,21.70
2023-05-07T21:50:07.573Z,21.70
2023-05-07T21:52:34.155Z,21.70
2023-05-07T21:55:00.715Z,21.70
2023-05-07T21:57:27.300Z,21.70
2023-05-07T21:59:53.852Z,21.70
2023-05-07T22:02:20.565Z,21.60
2023-05-07T22:04:47.202Z,21.70
2023-05-07T22:07:13.926Z,21.70
2023-05-07T22:09:40.490Z,21.70
2023-05-07T22:12:07.057Z,21.70
2023-05-07T22:14:33.656Z,21.70
2023-05-07T22:17:00.478Z,21.70
2023-05-07T22:19:27.090Z,21.70
2023-05-07T22:21:53.663Z,21.90
2023-05-07T22:24:20.243Z,21.60
2023-05-07T22:26:47.132Z,21.80
2023-05-07T22:29:13.704Z,21.90
2023-05-07T22:31:40.720Z,21.70
2023-05-07T22:34:07.343Z,21.80
2023-05-07T22:36:33.900Z,21.90
2023-05-07T22:39:00.820Z,22.00
2023-05-07T22:41:27.362Z,22.20
2023-05-07T22:43:53.955Z,22.40
2023-05-07T22:46:20.589Z,22.30
2023-05-07T22:48:47.201Z,22.20
2023-05-07T22:51:14.355Z,22.20
2023-05-07T22:53:40.925Z,22.10
2023-05-07T22:56:08.331Z,22.10
2023-05-07T22:58:34.909Z,22.10
2023-05-07T23:01:02.332Z,22.10
2023-05-07T23:03:29.046Z,22.00
2023-05-07T23:05:55.707Z,21.70
2023-05-07T23:08:23.176Z,22.00
2023-05-07T23:10:49.786Z,22.00
2023-05-07T23:13:17.417Z,22.00
2023-05-07T23:15:44.256Z,22.00
2023-05-07T23:18:11.000Z,21.90
2023-05-07T23:20:37.706Z,22.00
2023-05-07T23:23:04.264Z,21.90
2023-05-07T23:25:30.946Z,22.00
2023-05-07T23:27:57.525Z,21.90
2023-05-07T23:30:24.124Z,21.80
2023-05-07T23:32:50.852Z,21.80
2023-05-07T23:35:17.486Z,21.80
2023-05-07T23:37:44.036Z,21.80
2023-05-07T23:40:10.978Z,21.80
2023-05-07T23:42:37.730Z,21.80
2023-05-07T23:45:04.461Z,21.80
2023-05-07T23:47:31.159Z,21.80
2023-05-07T23:49:57.771Z,21.90
2023-05-07T23:52:24.432Z,21.80
2023-05-07T23:54:51.097Z,21.80
2023-05-07T23:57:17.790Z,21.80
2023-05-07T23:59:44.357Z,21.80
